Time;durP1;ratioP1;P1;durP2;ratioP2;P2;SDS_P1;SDS_P2;PMS_P1;PMS_P2;Temp;Humidity;BMP_temperature;BMP_pressure;BME280_temperature;BME280_humidity;BME280_pressure;Samples;Min_cycle;Max_cycle;Signal;HPM_P1;HPM_P2
2021/08/02 00:00:13;;;;;;;16.25;12.80;;;;;;;24.90;64.70;99717.71;1670688;84;21061;-75
2021/08/02 00:03:14;;;;;;;14.47;12.00;;;;;;;24.85;64.89;99717.89;1663096;84;21773;-75
2021/08/02 00:08:22;;;;;;;16.75;13.18;;;;;;;24.90;64.96;99729.81;1801814;77;22686;-66
2021/08/02 00:10:50;;;;;;;15.20;12.35;;;;;;;24.85;65.00;99733.23;1775774;78;21572;-68
2021/08/02 00:13:31;;;;;;;14.98;12.43;;;;;;;24.85;65.06;99739.42;1742256;78;21091;-67
2021/08/02 00:16:05;;;;;;;15.80;13.18;;;;;;;24.86;65.07;99746.95;1777570;78;20974;-67
2021/08/02 00:18:33;;;;;;;17.92;12.70;;;;;;;24.85;65.28;99754.75;1774207;78;21133;-67
2021/08/02 00:21:05;;;;;;;16.17;12.80;;;;;;;24.85;65.42;99758.80;1779290;78;21636;-68
2021/08/02 00:23:33;;;;;;;20.02;12.63;;;;;;;24.87;65.43;99755.88;1775035;78;22420;-69
2021/08/02 00:26:02;;;;;;;16.55;12.88;;;;;;;24.88;65.48;99760.19;1780441;78;21127;-68
2021/08/02 00:28:30;;;;;;;16.17;11.90;;;;;;;24.85;65.62;99764.17;1769864;78;21070;-65
2021/08/02 00:30:58;;;;;;;17.98;12.58;;;;;;;24.82;65.78;99771.36;1779152;78;21058;-69
2021/08/02 00:33:26;;;;;;;18.07;12.73;;;;;;;24.76;65.91;99768.23;1777461;78;21083;-65
2021/08/02 00:36:15;;;;;;;14.58;12.45;;;;;;;24.71;66.14;99752.78;1774078;78;21057;-66
2021/08/02 00:39:12;;;;;;;16.10;12.53;;;;;;;24.70;66.31;99751.70;1774668;78;21089;-66
2021/08/02 00:42:23;;;;;;;17.62;13.50;;;;;;;24.73;66.37;99745.83;1776407;78;21123;-66
2021/08/02 00:45:20;;;;;;;18.50;14.15;;;;;;;24.71;66.50;99733.14;1736971;80;21509;-66
2021/08/02 00:48:06;;;;;;;14.05;12.50;;;;;;;24.67;66.79;99731.45;1686217;83;21047;-67
2021/08/02 00:50:38;;;;;;;16.82;13.25;;;;;;;24.66;66.79;99732.48;1720388;81;21548;-67
2021/08/02 00:53:09;;;;;;;18.52;12.63;;;;;;;24.70;66.85;99735.56;1728160;81;21149;-66
2021/08/02 00:55:40;;;;;;;15.55;12.53;;;;;;;24.77;66.70;99746.48;1727469;81;21066;-66
2021/08/02 00:58:10;;;;;;;16.73;13.68;;;;;;;24.79;66.55;99743.56;1687679;81;21130;-65
2021/08/02 01:00:38;;;;;;;17.90;13.25;;;;;;;24.81;66.44;99735.57;1721823;81;21448;-65
2021/08/02 01:03:09;;;;;;;16.87;13.25;;;;;;;24.81;66.56;99719.94;1700108;82;21591;-66
2021/08/02 01:05:36;;;;;;;16.42;13.62;;;;;;;24.80;66.57;99711.05;1736841;81;21165;-66
2021/08/02 01:08:17;;;;;;;16.65;12.70;;;;;;;24.81;66.50;99711.86;1711639;81;21091;-66
2021/08/02 01:10:47;;;;;;;15.15;11.83;;;;;;;24.85;66.39;99709.02;1755552;79;21490;-66
2021/08/02 01:13:17;;;;;;;15.10;11.57;;;;;;;24.90;66.21;99698.38;1756370;81;21100;-66
2021/08/02 01:15:48;;;;;;;17.02;12.53;;;;;;;24.95;66.08;99690.41;1749082;79;21038;-66
2021/08/02 01:18:20;;;;;;;15.32;13.22;;;;;;;25.00;65.99;99688.37;1756642;81;22137;-67
2021/08/02 01:20:52;;;;;;;17.30;14.25;;;;;;;25.01;65.96;99693.48;1757391;81;21974;-66
2021/08/02 01:23:21;;;;;;;18.57;15.00;;;;;;;25.00;65.77;99683.80;1752665;81;21083;-66
2021/08/02 01:25:58;;;;;;;16.50;13.65;;;;;;;24.99;65.66;99683.49;1752917;81;21007;-66
2021/08/02 01:28:32;;;;;;;15.40;12.73;;;;;;;24.96;65.70;99682.61;1748267;81;21094;-66
2021/08/02 01:31:00;;;;;;;16.73;12.58;;;;;;;24.96;65.96;99683.95;1751686;81;21805;-67
2021/08/02 01:33:31;;;;;;;17.52;11.90;;;;;;;24.96;65.83;99685.84;1751511;81;21388;-66
2021/08/02 01:36:03;;;;;;;16.65;12.73;;;;;;;24.96;65.84;99681.27;1751431;80;21107;-66
2021/08/02 01:38:31;;;;;;;15.75;13.70;;;;;;;24.92;65.87;99691.41;1750647;80;21058;-67
2021/08/02 01:40:58;;;;;;;16.73;13.03;;;;;;;24.88;66.05;99682.98;1751553;79;21054;-68
2021/08/02 01:43:25;;;;;;;20.23;13.30;;;;;;;24.83;66.16;99673.42;1740818;81;21079;-68
2021/08/02 01:46:32;;;;;;;14.90;11.97;;;;;;;24.79;66.27;99680.34;1750085;81;21552;-67
2021/08/02 01:49:23;;;;;;;14.53;12.33;;;;;;;24.79;66.22;99695.14;1750611;81;21008;-66
2021/08/02 01:51:51;;;;;;;14.93;12.58;;;;;;;24.78;66.27;99677.34;1729971;79;21074;-67
2021/08/02 01:54:48;;;;;;;17.45;12.58;;;;;;;24.79;66.30;99679.00;1724481;81;21515;-67
2021/08/02 01:57:20;;;;;;;16.62;12.45;;;;;;;24.80;66.29;99687.38;1756240;79;21221;-67
2021/08/02 02:00:12;;;;;;;19.37;12.40;;;;;;;24.77;66.44;99685.14;1753768;81;21063;-66
2021/08/02 02:03:10;;;;;;;13.88;11.97;;;;;;;24.71;66.61;99686.06;1755110;79;21065;-67
2021/08/02 02:05:45;;;;;;;19.25;13.00;;;;;;;24.66;66.79;99671.46;1730081;81;21042;-67
2021/08/02 02:08:44;;;;;;;19.48;13.90;;;;;;;24.67;66.75;99657.47;1734568;79;21063;-67
2021/08/02 02:11:14;;;;;;;19.20;12.53;;;;;;;24.73;66.62;99653.02;1771085;79;21787;-66
2021/08/02 02:13:45;;;;;;;18.27;13.38;;;;;;;24.75;66.41;99653.09;1741363;80;21576;-67
2021/08/02 02:16:12;;;;;;;17.12;13.62;;;;;;;24.75;66.43;99651.75;1763388;79;21059;-66
2021/08/02 02:18:40;;;;;;;17.40;12.90;;;;;;;24.76;66.29;99642.61;1777628;79;21105;-66
2021/08/02 02:21:09;;;;;;;15.30;12.35;;;;;;;24.76;66.29;99653.91;1749270;80;21474;-65
2021/08/02 02:23:38;;;;;;;15.20;11.80;;;;;;;24.74;66.27;99656.83;1776336;79;21543;-66
2021/08/02 02:26:08;;;;;;;18.50;12.25;;;;;;;24.73;66.39;99653.02;1734601;80;21047;-66
2021/08/02 02:28:34;;;;;;;13.48;11.55;;;;;;;24.72;66.43;99648.17;1738966;79;21078;-66
2021/08/02 02:31:02;;;;;;;13.78;12.33;;;;;;;24.75;66.36;99638.83;1779425;79;21603;-67
2021/08/02 02:33:30;;;;;;;14.87;12.43;;;;;;;24.79;66.21;99641.33;1775323;79;21066;-67
2021/08/02 02:35:58;;;;;;;15.28;12.73;;;;;;;24.77;66.18;99638.88;1774410;79;21086;-67
2021/08/02 02:38:25;;;;;;;13.80;12.40;;;;;;;24.75;66.25;99636.14;1737617;80;21505;-67
2021/08/02 02:40:52;;;;;;;15.00;13.40;;;;;;;24.71;66.28;99646.52;1770556;79;21497;-67
2021/08/02 02:43:19;;;;;;;13.43;12.03;;;;;;;24.65;66.39;99659.59;1746091;80;21050;-67
2021/08/02 02:45:46;;;;;;;16.75;12.07;;;;;;;24.64;66.51;99683.48;1772292;79;21050;-67
2021/08/02 02:48:15;;;;;;;15.90;11.45;;;;;;;24.64;66.42;99696.94;1745143;80;21015;-67
2021/08/02 02:50:45;;;;;;;14.40;12.23;;;;;;;24.59;66.24;99698.97;1776649;79;21027;-67
2021/08/02 02:53:12;;;;;;;16.35;13.13;;;;;;;24.52;66.38;99707.65;1713817;80;21567;-66
2021/08/02 02:55:39;;;;;;;14.55;12.53;;;;;;;24.46;66.63;99699.98;1769114;79;21085;-66
2021/08/02 02:58:06;;;;;;;15.83;13.08;;;;;;;24.42;66.69;99690.73;1775530;79;21034;-66
2021/08/02 03:00:33;;;;;;;12.70;11.25;;;;;;;24.41;66.83;99690.95;1778861;79;21090;-66
2021/08/02 03:03:00;;;;;;;18.67;12.55;;;;;;;24.43;66.84;99695.60;1771119;79;21175;-67
2021/08/02 03:05:26;;;;;;;16.30;13.13;;;;;;;24.51;66.68;99705.19;1769436;79;20995;-66
2021/08/02 03:07:58;;;;;;;14.47;12.18;;;;;;;24.53;66.55;99699.89;1774083;79;21098;-64
2021/08/02 03:10:27;;;;;;;14.90;11.97;;;;;;;24.54;66.57;99696.13;1762658;79;21176;-66
2021/08/02 03:12:55;;;;;;;14.85;12.05;;;;;;;24.52;66.57;99694.20;1732679;79;21682;-62
2021/08/02 03:15:22;;;;;;;15.58;12.53;;;;;;;24.53;66.73;99696.36;1756604;79;21625;-61
2021/08/02 03:17:48;;;;;;;13.93;12.05;;;;;;;24.52;66.70;99697.42;1758362;79;21098;-60
2021/08/02 03:20:15;;;;;;;14.23;11.53;;;;;;;24.55;66.67;99698.34;1768029;79;21038;-60
2021/08/02 03:22:51;;;;;;;17.95;12.07;;;;;;;24.59;66.52;99703.00;1770460;79;21169;-63
2021/08/02 03:25:33;;;;;;;14.03;11.53;;;;;;;24.61;66.46;99700.92;1759602;79;21217;-62
2021/08/02 03:28:25;;;;;;;16.42;12.23;;;;;;;24.63;66.42;99706.88;1744840;80;21051;-63
2021/08/02 03:30:54;;;;;;;16.97;12.85;;;;;;;24.58;66.41;99724.25;1754243;79;21527;-66
2021/08/02 03:33:34;;;;;;;15.40;11.18;;;;;;;24.48;66.61;99730.69;1762448;79;20976;-62
2021/08/02 03:36:07;;;;;;;14.20;11.97;;;;;;;24.45;66.69;99745.93;1771909;79;21417;-63
2021/08/02 03:38:35;;;;;;;15.65;11.73;;;;;;;24.41;66.69;99721.38;1744977;80;21099;-61
2021/08/02 03:41:04;;;;;;;16.00;12.00;;;;;;;24.41;66.68;99732.13;1761622;79;21635;-63
2021/08/02 03:43:36;;;;;;;14.35;11.53;;;;;;;24.40;66.70;99731.02;1744569;80;21070;-61
2021/08/02 03:46:04;;;;;;;16.42;12.10;;;;;;;24.37;66.68;99724.75;1741376;80;21176;-61
2021/08/02 03:48:31;;;;;;;12.98;11.22;;;;;;;24.35;66.89;99729.00;1758726;79;21540;-62
2021/08/02 03:50:59;;;;;;;15.32;11.78;;;;;;;24.33;66.91;99728.95;1763436;79;21519;-62
2021/08/02 03:53:25;;;;;;;17.30;11.75;;;;;;;24.36;66.85;99715.87;1761406;79;21083;-66
2021/08/02 03:55:52;;;;;;;15.48;11.90;;;;;;;24.44;66.84;99691.84;1705804;82;21561;-69
2021/08/02 03:58:18;;;;;;;14.80;13.20;;;;;;;24.54;66.82;99691.28;1718976;80;21062;-69
2021/08/02 04:00:45;;;;;;;15.93;13.40;;;;;;;24.63;66.66;99684.02;1721865;82;21043;-68
2021/08/02 04:03:12;;;;;;;14.85;11.45;;;;;;;24.72;66.55;99683.15;1761070;79;21181;-65
2021/08/02 04:05:38;;;;;;;14.35;12.88;;;;;;;24.78;66.58;99672.80;1764931;79;21122;-66
2021/08/02 04:08:05;;;;;;;14.35;12.28;;;;;;;24.89;66.65;99667.66;1764602;79;21102;-66
2021/08/02 04:10:32;;;;;;;16.48;12.58;;;;;;;25.03;66.51;99669.88;1776786;79;21118;-67
2021/08/02 04:12:58;;;;;;;18.20;12.40;;;;;;;25.16;66.02;99667.44;1741475;80;21572;-69
2021/08/02 04:15:25;;;;;;;15.75;12.10;;;;;;;25.29;66.21;99661.02;1778968;79;21110;-67
2021/08/02 04:17:52;;;;;;;15.72;11.95;;;;;;;25.44;66.17;99659.71;1771559;79;21097;-64
2021/08/02 04:20:19;;;;;;;18.70;12.47;;;;;;;25.54;65.77;99657.22;1772341;79;21552;-66
2021/08/02 04:22:48;;;;;;;14.10;12.30;;;;;;;25.63;65.42;99661.16;1767178;79;21540;-68
2021/08/02 04:25:15;;;;;;;16.70;13.32;;;;;;;25.67;64.92;99662.33;1770571;79;21066;-67
2021/08/02 04:27:41;;;;;;;16.15;11.73;;;;;;;25.70;64.84;99648.89;1743811;79;21080;-67
2021/08/02 04:30:10;;;;;;;14.50;12.03;;;;;;;25.71;64.96;99645.96;1766665;79;21145;-68
2021/08/02 04:32:43;;;;;;;14.83;12.85;;;;;;;25.80;64.72;99637.49;1739687;79;21074;-66
2021/08/02 04:35:10;;;;;;;16.48;12.63;;;;;;;25.90;64.47;99641.72;1739333;80;21465;-66
2021/08/02 04:37:36;;;;;;;14.60;13.05;;;;;;;26.00;64.56;99640.58;1772537;79;21078;-66
2021/08/02 04:40:05;;;;;;;16.65;12.33;;;;;;;26.08;64.21;99640.72;1749573;80;21078;-66
2021/08/02 04:42:36;;;;;;;16.73;13.05;;;;;;;26.08;63.89;99646.92;1769024;79;21077;-66
2021/08/02 04:45:05;;;;;;;13.00;11.30;;;;;;;26.09;63.88;99658.01;1771277;79;21123;-67
2021/08/02 04:47:32;;;;;;;14.70;12.50;;;;;;;26.07;63.72;99658.76;1775189;79;21106;-66
2021/08/02 04:49:59;;;;;;;19.30;11.68;;;;;;;26.07;63.69;99668.73;1747419;80;21025;-67
2021/08/02 04:52:26;;;;;;;14.03;11.35;;;;;;;26.06;63.64;99667.92;1775357;79;21969;-67
2021/08/02 04:54:56;;;;;;;21.05;12.15;;;;;;;26.13;63.52;99661.84;1710993;82;21086;-71
2021/08/02 04:57:23;;;;;;;16.10;11.88;;;;;;;26.18;63.00;99655.72;1765802;79;21106;-63
2021/08/02 04:59:49;;;;;;;15.03;12.63;;;;;;;26.24;63.07;99639.93;1763065;79;21081;-73
2021/08/02 05:02:15;;;;;;;16.15;12.25;;;;;;;26.27;62.90;99638.61;1769422;79;21069;-68
2021/08/02 05:04:42;;;;;;;17.12;12.20;;;;;;;26.33;62.99;99632.25;1775686;79;21135;-69
2021/08/02 05:07:10;;;;;;;12.95;11.22;;;;;;;26.39;63.16;99627.73;1693443;80;21129;-69
2021/08/02 05:09:37;;;;;;;17.77;11.70;;;;;;;26.41;63.15;99611.61;1755892;79;22521;-69
2021/08/02 05:12:05;;;;;;;15.40;10.90;;;;;;;26.48;62.82;99613.59;1751354;79;21471;-69
2021/08/02 05:14:32;;;;;;;16.35;12.55;;;;;;;26.55;62.38;99601.83;1752470;79;21070;-67
2021/08/02 05:16:59;;;;;;;13.43;11.83;;;;;;;26.65;62.41;99588.52;1750923;79;21188;-71
2021/08/02 05:19:26;;;;;;;15.00;11.65;;;;;;;26.71;62.40;99568.61;1725971;81;21538;-69
2021/08/02 05:21:55;;;;;;;13.38;11.75;;;;;;;26.74;62.28;99569.47;1755299;79;21603;-67
2021/08/02 05:24:22;;;;;;;16.85;12.63;;;;;;;26.76;62.13;99570.57;1755581;79;21081;-66
2021/08/02 05:26:49;;;;;;;15.38;11.57;;;;;;;26.81;62.12;99578.19;1750959;79;21047;-69
2021/08/02 05:29:16;;;;;;;13.35;10.55;;;;;;;26.83;61.67;99578.78;1757227;79;21905;-76
2021/08/02 05:31:43;;;;;;;15.03;12.30;;;;;;;26.82;61.45;99577.67;1756470;79;21047;-73
2021/08/02 05:34:13;;;;;;;13.68;11.43;;;;;;;26.87;61.40;99579.09;1753652;79;21700;-68
2021/08/02 05:36:41;;;;;;;13.75;10.48;;;;;;;26.94;61.30;99578.91;1756573;79;21081;-72
2021/08/02 05:39:10;;;;;;;16.40;11.83;;;;;;;26.98;61.47;99566.53;1721446;81;21050;-70
2021/08/02 05:41:38;;;;;;;16.35;12.03;;;;;;;27.03;61.65;99573.34;1754374;79;21109;-69
2021/08/02 05:44:05;;;;;;;13.72;11.30;;;;;;;27.07;61.32;99583.94;1731245;81;21921;-70
2021/08/02 05:46:32;;;;;;;15.98;10.72;;;;;;;27.06;61.28;99566.91;1759737;79;21066;-72
2021/08/02 05:49:00;;;;;;;15.75;11.68;;;;;;;27.06;61.51;99552.05;1754464;79;21097;-72
2021/08/02 05:51:27;;;;;;;16.93;11.22;;;;;;;27.06;61.56;99545.30;1757998;79;21070;-71
2021/08/02 05:53:54;;;;;;;12.75;10.85;;;;;;;27.10;61.48;99564.54;1756392;79;21191;-73
2021/08/02 05:56:20;;;;;;;16.75;10.58;;;;;;;27.11;61.41;99559.95;1756615;79;21001;-67
2021/08/02 05:58:47;;;;;;;14.07;11.10;;;;;;;27.18;61.55;99563.27;1727554;81;21101;-71
2021/08/02 06:01:14;;;;;;;14.83;10.38;;;;;;;27.24;61.62;99546.86;1757473;79;21107;-70
2021/08/02 06:03:41;;;;;;;12.45;11.12;;;;;;;27.33;61.36;99532.94;1756125;79;21040;-67
2021/08/02 06:06:07;;;;;;;13.18;10.85;;;;;;;27.40;61.53;99528.98;1759573;79;21459;-66
2021/08/02 06:08:40;;;;;;;14.83;10.23;;;;;;;27.43;61.35;99537.90;1757676;79;21097;-69
2021/08/02 06:11:07;;;;;;;15.60;10.48;;;;;;;27.45;61.16;99532.24;1721849;80;21464;-66
2021/08/02 06:13:33;;;;;;;11.85;9.43;;;;;;;27.46;60.58;99539.29;1760348;79;21106;-65
2021/08/02 06:16:00;;;;;;;14.87;9.88;;;;;;;27.45;60.78;99536.84;1754208;79;21151;-69
2021/08/02 06:18:27;;;;;;;11.93;9.15;;;;;;;27.47;60.61;99536.87;1750534;79;21071;-67
2021/08/02 06:20:54;;;;;;;11.70;9.00;;;;;;;27.51;59.68;99535.28;1756577;79;21056;-64
2021/08/02 06:23:21;;;;;;;11.40;9.33;;;;;;;27.53;59.52;99535.84;1725902;79;21074;-63
2021/08/02 06:25:47;;;;;;;10.40;8.53;;;;;;;27.53;58.63;99532.33;1755497;79;21074;-73
2021/08/02 06:28:14;;;;;;;9.73;8.53;;;;;;;27.54;58.21;99531.27;1760033;79;22162;-67
2021/08/02 06:30:41;;;;;;;12.05;8.65;;;;;;;27.53;57.80;99531.78;1753423;79;21072;-64
2021/08/02 06:33:08;;;;;;;10.75;9.50;;;;;;;27.51;57.80;99535.28;1728197;81;21416;-65
2021/08/02 06:35:36;;;;;;;11.83;9.83;;;;;;;27.50;57.68;99526.89;1757931;79;21576;-65
2021/08/02 06:38:04;;;;;;;13.72;10.70;;;;;;;27.51;57.68;99528.53;1748771;79;21059;-67
2021/08/02 06:40:31;;;;;;;11.33;9.33;;;;;;;27.51;57.67;99520.42;1757070;79;21062;-66
2021/08/02 06:42:58;;;;;;;15.23;10.35;;;;;;;27.53;57.37;99525.58;1751048;79;21016;-68
2021/08/02 06:45:25;;;;;;;12.65;10.30;;;;;;;27.53;56.87;99526.38;1752529;79;21688;-65
2021/08/02 06:47:54;;;;;;;11.70;9.58;;;;;;;27.48;57.35;99519.58;1691880;82;21090;-63
2021/08/02 06:50:20;;;;;;;13.35;9.25;;;;;;;27.52;57.26;99530.17;1752034;79;21043;-67
2021/08/02 06:52:47;;;;;;;12.98;9.75;;;;;;;27.61;56.80;99538.08;1758617;79;21414;-66
2021/08/02 06:55:14;;;;;;;13.30;9.88;;;;;;;27.71;56.89;99527.09;1751694;79;21143;-63
2021/08/02 06:57:41;;;;;;;15.18;10.32;;;;;;;27.75;55.96;99527.66;1746917;79;21114;-68
2021/08/02 07:00:09;;;;;;;11.97;10.00;;;;;;;27.78;56.31;99523.64;1751017;79;21086;-64
2021/08/02 07:02:36;;;;;;;12.28;10.53;;;;;;;27.83;56.76;99525.03;1752690;79;21142;-67
2021/08/02 07:05:03;;;;;;;12.30;10.08;;;;;;;27.90;56.50;99527.52;1756691;79;21078;-64
2021/08/02 07:07:30;;;;;;;13.08;9.08;;;;;;;27.94;54.97;99525.43;1723905;80;21058;-64
2021/08/02 07:09:57;;;;;;;12.07;8.63;;;;;;;27.96;54.86;99530.03;1762597;79;21516;-66
2021/08/02 07:12:23;;;;;;;14.90;10.45;;;;;;;27.99;54.46;99525.98;1767664;79;21127;-67
2021/08/02 07:14:51;;;;;;;13.53;9.98;;;;;;;28.03;54.24;99524.95;1737500;80;21513;-66
2021/08/02 07:17:19;;;;;;;11.20;9.00;;;;;;;28.04;54.20;99526.56;1775865;79;21540;-66
2021/08/02 07:19:47;;;;;;;13.95;9.60;;;;;;;28.06;54.06;99527.11;1678007;82;22304;-67
2021/08/02 07:22:14;;;;;;;10.78;9.38;;;;;;;28.07;53.62;99529.56;1706572;82;21008;-68
2021/08/02 07:24:40;;;;;;;12.60;9.28;;;;;;;28.07;54.05;99533.62;1768233;79;21069;-65
2021/08/02 07:27:07;;;;;;;13.95;9.80;;;;;;;28.10;54.36;99529.59;1766733;79;21107;-70
2021/08/02 07:29:34;;;;;;;13.00;9.48;;;;;;;28.10;53.58;99533.65;1705143;82;21055;-65
2021/08/02 07:32:00;;;;;;;12.65;9.38;;;;;;;28.11;54.26;99529.85;1764161;79;21652;-64
2021/08/02 07:34:27;;;;;;;14.43;9.98;;;;;;;28.14;54.59;99532.05;1766958;79;21147;-69
2021/08/02 07:36:53;;;;;;;11.35;9.65;;;;;;;28.17;54.18;99528.27;1735339;80;21071;-66
2021/08/02 07:39:19;;;;;;;12.85;9.38;;;;;;;28.21;54.49;99527.77;1743689;80;21007;-65
2021/08/02 07:41:46;;;;;;;11.33;9.38;;;;;;;28.26;54.05;99532.69;1765052;79;21149;-65
2021/08/02 07:44:13;;;;;;;13.62;9.13;;;;;;;28.32;53.47;99537.03;1768684;79;21150;-70
2021/08/02 07:46:40;;;;;;;13.08;9.08;;;;;;;28.37;52.67;99535.45;1765929;79;21082;-70
2021/08/02 07:49:06;;;;;;;12.88;8.45;;;;;;;28.42;52.19;99528.72;1768253;79;21032;-67
2021/08/02 07:51:34;;;;;;;11.35;8.58;;;;;;;28.48;52.45;99531.71;1767526;79;21316;-68
2021/08/02 07:54:02;;;;;;;9.90;7.75;;;;;;;28.56;51.91;99528.54;1765421;79;21153;-67
2021/08/02 07:56:29;;;;;;;11.55;7.67;;;;;;;28.66;51.22;99542.12;1761522;79;21725;-65
2021/08/02 07:58:56;;;;;;;9.73;8.45;;;;;;;28.76;50.14;99529.17;1739161;79;21097;-65
2021/08/02 08:01:24;;;;;;;15.72;8.63;;;;;;;28.86;49.02;99533.83;1771694;79;21145;-64
2021/08/02 08:03:51;;;;;;;9.63;7.33;;;;;;;28.93;49.10;99541.16;1706631;82;21113;-65
2021/08/02 08:06:18;;;;;;;12.90;8.95;;;;;;;29.01;49.98;99546.61;1712287;81;21122;-68
2021/08/02 08:09:45;;;;;;;10.80;8.18;;;;;;;29.17;48.98;99552.39;1860761;74;22548;-73
2021/08/02 08:12:11;;;;;;;9.60;8.25;;;;;;;29.21;48.47;99551.31;1825195;76;21500;-71
2021/08/02 08:14:38;;;;;;;9.95;7.97;;;;;;;29.30;48.20;99558.37;1856185;75;21108;-72
2021/08/02 08:19:39;;;;;;;11.63;7.33;;;;;;;29.48;48.40;99555.72;1791019;77;22003;-74
2021/08/02 08:22:05;;;;;;;18.82;8.53;;;;;;;29.50;47.73;99554.91;1777440;78;21731;-75
2021/08/02 08:24:31;;;;;;;12.85;7.45;;;;;;;29.58;46.76;99560.59;1778920;78;21054;-73
2021/08/02 08:26:57;;;;;;;14.38;8.23;;;;;;;29.65;46.10;99553.02;1774452;80;21700;-72
2021/08/02 08:29:24;;;;;;;13.58;9.15;;;;;;;29.70;46.19;99549.50;1779859;78;21030;-71
2021/08/02 08:31:51;;;;;;;11.00;7.90;;;;;;;29.74;47.04;99554.67;1773697;79;21048;-72
2021/08/02 08:34:17;;;;;;;11.10;8.40;;;;;;;29.80;46.89;99553.59;1748680;79;21120;-73
2021/08/02 08:36:44;;;;;;;12.28;7.47;;;;;;;29.86;47.02;99557.66;1769051;78;21140;-74
2021/08/02 08:39:10;;;;;;;8.23;6.72;;;;;;;29.89;46.46;99567.45;1774003;78;21002;-74
2021/08/02 08:41:37;;;;;;;9.93;7.78;;;;;;;29.93;45.11;99559.03;1779610;78;21043;-75
2021/08/02 08:44:04;;;;;;;9.03;6.72;;;;;;;29.97;45.57;99564.73;1774556;78;21020;-73
2021/08/02 08:46:30;;;;;;;12.53;8.03;;;;;;;30.02;45.47;99557.94;1772811;78;21121;-71
2021/08/02 08:48:57;;;;;;;12.30;7.35;;;;;;;30.10;46.07;99562.83;1776765;78;21120;-73
2021/08/02 08:51:24;;;;;;;10.30;6.80;;;;;;;30.22;46.69;99563.09;1746872;79;21651;-71
2021/08/02 08:53:52;;;;;;;10.13;7.58;;;;;;;30.33;45.72;99560.64;1751539;79;21571;-72
2021/08/02 08:56:18;;;;;;;14.30;8.83;;;;;;;30.44;45.88;99557.38;1749729;79;21097;-70
2021/08/02 08:58:44;;;;;;;9.78;7.58;;;;;;;30.50;45.96;99550.31;1733511;80;21700;-72
2021/08/02 09:01:11;;;;;;;9.45;7.47;;;;;;;30.58;45.53;99554.38;1703651;82;21129;-68
2021/08/02 09:03:38;;;;;;;9.68;7.03;;;;;;;30.66;44.32;99558.41;1715219;81;21430;-68
2021/08/02 09:06:06;;;;;;;12.23;7.72;;;;;;;30.70;44.52;99545.92;1682690;83;21108;-68
2021/08/02 09:08:41;;;;;;;16.27;8.43;;;;;;;30.74;45.63;99539.64;1720029;81;21110;-72
2021/08/02 09:11:07;;;;;;;11.83;6.60;;;;;;;30.85;45.24;99539.07;1719309;81;21464;-72
2021/08/02 09:13:36;;;;;;;14.25;6.37;;;;;;;30.93;42.57;99543.09;1733330;80;21018;-75
2021/08/02 09:16:22;;;;;;;13.32;7.10;;;;;;;30.99;42.66;99550.72;1733804;80;21028;-73
2021/08/02 09:19:03;;;;;;;8.20;6.95;;;;;;;31.04;42.69;99539.83;1725561;80;21024;-72
2021/08/02 09:21:44;;;;;;;8.43;6.70;;;;;;;31.13;43.26;99539.50;1698237;82;21135;-75
2021/08/02 09:24:11;;;;;;;8.75;6.42;;;;;;;31.23;42.00;99542.70;1761184;79;21043;-71
2021/08/02 09:26:39;;;;;;;9.78;7.08;;;;;;;31.30;41.13;99548.64;1732031;79;21154;-72
2021/08/02 09:29:06;;;;;;;11.95;6.87;;;;;;;31.36;41.20;99548.08;1755877;79;21109;-75
2021/08/02 09:31:38;;;;;;;15.58;8.13;;;;;;;31.43;40.82;99545.30;1743361;80;22357;-74
2021/08/02 09:34:07;;;;;;;17.62;8.13;;;;;;;31.55;40.33;99544.97;1757238;79;21094;-74
2021/08/02 09:36:53;;;;;;;14.87;6.90;;;;;;;31.62;40.49;99540.58;1700099;83;21418;-72
2021/08/02 09:39:17;;;;;;;18.10;8.48;;;;;;;31.70;40.33;99545.97;1733478;79;21066;-76
2021/08/02 09:41:44;;;;;;;11.90;7.35;;;;;;;31.71;39.65;99553.84;1761072;79;21028;-72
2021/08/02 09:44:22;;;;;;;13.40;6.95;;;;;;;31.72;40.11;99555.45;1758456;80;21642;-75
2021/08/02 09:47:01;;;;;;;12.68;6.65;;;;;;;31.77;40.30;99554.61;1763484;79;22051;-76
2021/08/02 09:49:46;;;;;;;10.00;6.78;;;;;;;31.84;39.97;99555.92;1758557;79;21074;-71
2021/08/02 09:52:16;;;;;;;7.72;5.42;;;;;;;31.92;39.16;99561.84;1762560;79;21891;-70
2021/08/02 09:54:43;;;;;;;9.98;6.28;;;;;;;31.96;38.95;99546.55;1756401;79;21071;-71
2021/08/02 09:57:10;;;;;;;13.08;5.15;;;;;;;32.02;39.03;99555.75;1757246;79;21723;-74
2021/08/02 09:59:44;;;;;;;10.72;6.00;;;;;;;32.12;37.81;99549.44;1733830;79;21095;-72
2021/08/02 10:02:08;;;;;;;9.25;5.60;;;;;;;32.19;37.56;99553.19;1759060;79;21609;-70
2021/08/02 10:04:35;;;;;;;6.53;4.80;;;;;;;32.20;37.55;99578.75;1731979;79;21166;-74
2021/08/02 10:07:02;;;;;;;9.40;5.80;;;;;;;32.17;37.39;99568.44;1770517;79;21274;-72
2021/08/02 10:09:29;;;;;;;9.18;4.85;;;;;;;32.11;37.76;99566.05;1742429;80;21071;-73
2021/08/02 10:11:56;;;;;;;7.12;4.60;;;;;;;32.09;37.86;99571.77;1757297;79;21545;-70
2021/08/02 10:14:32;;;;;;;9.90;5.62;;;;;;;32.09;37.64;99578.58;1738725;80;21043;-73
2021/08/02 10:17:05;;;;;;;10.88;5.45;;;;;;;32.10;37.52;99585.66;1757605;79;21116;-74
2021/08/02 10:19:47;;;;;;;6.95;4.75;;;;;;;32.12;38.00;99579.38;1760226;79;21114;-73
2021/08/02 10:22:14;;;;;;;7.62;5.08;;;;;;;32.22;38.28;99582.00;1758531;79;21062;-73
2021/08/02 10:24:50;;;;;;;7.35;4.85;;;;;;;32.28;38.24;99578.70;1739101;80;21054;-73
2021/08/02 10:27:27;;;;;;;9.33;5.00;;;;;;;32.31;38.33;99578.66;1758084;79;21145;-77
2021/08/02 10:29:54;;;;;;;7.50;4.78;;;;;;;32.33;37.88;99594.14;1760503;79;21214;-73
2021/08/02 10:32:23;;;;;;;16.67;6.65;;;;;;;32.30;37.42;99584.66;1736686;80;21673;-76
2021/08/02 10:34:51;;;;;;;7.70;4.97;;;;;;;32.28;38.18;99577.34;1762047;79;21515;-78
2021/08/02 10:37:30;;;;;;;8.10;4.90;;;;;;;32.34;38.36;99585.69;1766551;79;21087;-75
2021/08/02 10:40:08;;;;;;;10.23;5.35;;;;;;;32.46;37.81;99582.58;1758026;79;21131;-73
2021/08/02 10:42:51;;;;;;;8.60;4.83;;;;;;;32.54;37.12;99583.88;1702641;82;21531;-73
2021/08/02 10:45:32;;;;;;;8.70;5.08;;;;;;;32.51;37.49;99583.08;1699854;82;21565;-75
2021/08/02 10:47:59;;;;;;;9.85;5.70;;;;;;;32.45;38.44;99588.31;1740634;80;22199;-76
2021/08/02 10:50:28;;;;;;;8.70;5.70;;;;;;;32.40;38.76;99575.02;1756867;79;21091;-74
2021/08/02 10:52:54;;;;;;;8.60;5.30;;;;;;;32.45;38.91;99601.39;1736773;79;21130;-80
2021/08/02 10:55:21;;;;;;;8.85;5.80;;;;;;;32.50;38.70;99589.65;1762208;79;21276;-77
2021/08/02 10:57:59;;;;;;;6.83;4.62;;;;;;;32.50;38.47;99597.26;1746047;79;21067;-77
2021/08/02 11:00:27;;;;;;;9.00;5.22;;;;;;;32.40;37.91;99607.69;1757809;79;21074;-75
2021/08/02 11:02:56;;;;;;;8.20;5.10;;;;;;;32.30;38.01;99618.69;1760888;79;21054;-75
2021/08/02 11:05:23;;;;;;;10.40;5.30;;;;;;;32.14;38.30;99604.38;1767879;80;21090;-77
2021/08/02 11:07:49;;;;;;;10.30;5.45;;;;;;;32.04;38.79;99601.19;1745936;80;22226;-76
2021/08/02 11:10:16;;;;;;;10.50;5.75;;;;;;;31.97;39.13;99611.56;1759806;79;21068;-73
2021/08/02 11:12:44;;;;;;;8.70;5.10;;;;;;;31.94;39.10;99620.32;1752111;79;21510;-77
2021/08/02 11:15:11;;;;;;;10.23;5.75;;;;;;;31.96;38.99;99630.89;1759925;79;22215;-80
2021/08/02 11:17:50;;;;;;;8.83;5.50;;;;;;;31.93;39.44;99620.05;1728598;80;20984;-73
2021/08/02 11:20:17;;;;;;;10.03;5.50;;;;;;;31.89;39.46;99610.00;1763864;79;21130;-75
2021/08/02 11:22:56;;;;;;;8.60;4.87;;;;;;;31.82;39.41;99599.45;1765430;79;21072;-76
2021/08/02 11:25:26;;;;;;;7.53;4.65;;;;;;;31.79;40.62;99594.56;1697527;82;21041;-72
2021/08/02 11:27:54;;;;;;;7.70;5.05;;;;;;;31.83;40.07;99586.12;1759237;79;21038;-77
2021/08/02 11:30:22;;;;;;;8.18;4.95;;;;;;;31.79;40.52;99583.69;1737770;80;21581;-72
2021/08/02 11:32:48;;;;;;;11.83;5.22;;;;;;;31.82;40.71;99582.56;1733365;80;21055;-76
2021/08/02 11:35:15;;;;;;;8.50;4.53;;;;;;;31.88;40.31;99573.84;1751771;80;21062;-74
2021/08/02 11:37:48;;;;;;;9.05;4.80;;;;;;;31.93;39.61;99586.04;1736977;80;21865;-76
2021/08/02 11:40:12;;;;;;;10.38;4.58;;;;;;;31.96;39.17;99566.95;1727221;79;21677;-75